Latest Weather Observations for Gold Coast Seaway

IDQ60801

Issued at 9:35 am EST Saturday 22 November 2014 (issued every 30 minutes, with the page automatically refreshed every 10 minutes)

About weather observations | Map of weather stations | Latest weather observations for QLD | Other Formats
Station Details ID: 040764 Name: GOLD COAST SEAWAY Lat: -27.94 Lon: 153.43 Height: 2.98 m
Data from the previous 72 hours. | See also: Recent months at Gold Coast Seaway
Date/Time
EST
Temp
°C
App
Temp
°C
Dew
Point
Rel
Hum
%
Delta-T
°C
Wind Press
QNH
hPa
Press
MSL
hPa
Rain
since 9 am
mm
Dir
 
Spd
km/h
Gust
km/h
Spd
kts
Gust
kts
22/09:30am 25.6 25.0 18.8 66 4.3 N 20 30 11 16 1014.7 1014.7 0.0
22/09:00am 25.3 24.5 19.2 69 3.9 N 22 30 12 16 1014.8 1014.8 0.2
22/08:30am 27.4 28.1 20.5 66 4.5 N 17 26 9 14 1014.8 1014.8 0.2
22/08:00am 26.7 27.2 21.2 72 3.6 N 20 30 11 16 1014.7 1014.7 0.2
22/07:30am 26.1 26.6 22.0 78 2.7 N 22 33 12 18 1014.8 1014.8 0.2
22/07:00am 24.8 26.4 22.1 85 1.8 NNW 17 24 9 13 1014.6 1014.6 0.2
22/06:30am 24.6 26.3 22.3 87 1.5 NNW 17 26 9 14 1014.4 1014.4 0.2
22/06:00am 24.5 25.5 22.2 87 1.5 NNW 20 30 11 16 1014.0 1014.0 0.2
22/05:30am 24.7 25.5 21.8 84 1.9 N 20 32 11 17 1013.8 1013.8 0.2
22/05:00am 24.7 25.0 22.2 86 1.7 N 24 35 13 19 1013.4 1013.4 0.2
22/04:30am 24.7 25.2 22.0 85 1.8 N 22 35 12 19 1013.0 1013.0 0.2
22/04:00am 24.6 25.7 21.9 85 1.8 N 19 30 10 16 1012.4 1012.4 0.2
22/03:30am 24.8 25.4 22.1 85 1.8 N 22 35 12 19 1012.2 1012.2 0.2
22/03:00am 25.0 25.4 22.5 86 1.7 NNW 24 35 13 19 1012.3 1012.3 0.2
22/02:30am 24.8 25.9 23.0 90 1.2 N 22 32 12 17 1012.0 1012.0 0.2
22/02:00am 22.7 23.6 21.5 93 0.8 N 19 24 10 13 1011.5 1011.5 0.2
22/01:30am 24.6 25.2 23.4 93 0.8 N 26 35 14 19 1011.7 1011.7 0.2
22/01:00am 22.1 23.3 22.1 100 0.0 N 19 26 10 14 1012.0 1012.0 0.2
22/12:30am 21.6 22.9 21.6 100 0.0 N 17 20 9 11 1012.0 1012.0 0.2
22/12:00am 21.6 22.8 21.4 99 0.1 N 17 20 9 11 1012.3 1012.3 0.2
 
Date/Time
EST
Temp
°C
App
Temp
°C
Dew
Point
Rel
Hum
%
Delta-T
°C
Wind Press
QNH
hPa
Press
MSL
hPa
Rain
since 9 am
mm
Dir
 
Spd
km/h
Gust
km/h
Spd
kts
Gust
kts
21/11:30pm 22.0 23.5 21.2 95 0.5 N 15 19 8 10 1012.9 1012.9 0.2
21/11:00pm 22.7 24.5 22.5 99 0.1 N 17 20 9 11 1013.3 1013.3 0.2
21/10:30pm 22.1 23.7 21.4 96 0.5 N 15 17 8 9 1013.5 1013.5 0.2
21/10:00pm 23.6 26.6 23.3 98 0.2 N 13 19 7 10 1013.6 1013.6 0.2
21/09:30pm 22.6 25.1 22.4 99 0.1 N 13 17 7 9 1013.4 1013.4 0.2
21/09:00pm 22.4 24.5 22.4 100 0.0 N 15 19 8 10 1013.6 1013.6 0.2
21/08:30pm 21.9 24.1 21.9 100 0.0 N 13 17 7 9 1013.1 1013.1 0.2
21/08:00pm 22.0 23.4 21.8 99 0.1 N 17 19 9 10 1012.9 1012.9 0.2
21/07:30pm 22.0 23.8 21.8 99 0.1 N 15 17 8 9 1012.9 1012.9 0.2
21/07:00pm 22.4 23.4 22.2 99 0.1 N 20 26 11 14 1012.5 1012.5 0.2
21/06:30pm 22.5 21.7 22.3 99 0.1 N 30 33 16 18 1012.2 1012.2 0.2
21/06:00pm 22.7 21.8 22.2 97 0.3 N 30 33 16 18 1011.9 1011.9 0.2
21/05:30pm 23.1 21.7 21.9 93 0.8 N 32 37 17 20 1011.5 1011.5 0.2
21/05:00pm 23.5 21.8 21.4 88 1.4 N 32 37 17 20 1011.0 1011.0 0.2
21/04:30pm 24.2 22.2 21.1 83 2.0 N 33 37 18 20 1010.9 1010.9 0.2
21/04:00pm 24.7 23.0 21.4 82 2.2 NNE 32 37 17 20 1011.2 1011.2 0.2
21/03:30pm 25.1 22.4 21.2 79 2.6 NNE 37 44 20 24 1011.3 1011.3 0.2
21/03:00pm 26.0 24.1 21.4 76 3.1 NNE 33 39 18 21 1011.4 1011.4 0.2
21/02:30pm 25.9 23.5 21.1 75 3.2 NNE 35 41 19 22 1011.5 1011.5 0.2
21/02:00pm 25.7 23.8 21.4 77 2.9 NNE 33 39 18 21 1011.8 1011.8 0.2
21/01:30pm 25.3 22.9 21.0 77 2.8 NNE 35 39 19 21 1012.2 1012.2 0.2
21/01:00pm 26.2 23.5 21.2 74 3.3 NNE 37 44 20 24 1012.5 1012.5 0.2
21/12:30pm 26.5 24.1 21.0 72 3.6 NNE 35 41 19 22 1013.0 1013.0 0.2
21/12:00pm 26.8 24.8 21.1 71 3.8 NNE 33 39 18 21 1013.6 1013.6 0.2
21/11:30am 26.9 25.1 21.2 71 3.8 NNE 32 37 17 20 1014.1 1014.1 0.2
21/11:00am 26.3 23.8 20.8 71 3.6 NNE 35 39 19 21 1014.3 1014.3 0.2
21/10:30am 26.8 25.3 20.9 70 3.9 NNE 30 39 16 21 1014.8 1014.8 0.0
21/10:00am 26.2 25.6 21.2 74 3.3 NNE 26 33 14 18 1015.1 1015.1 0.0
21/09:30am 27.2 26.6 21.2 69 4.0 N 26 39 14 21 1015.4 1015.4 0.0
21/09:00am 27.2 27.9 22.2 74 3.4 N 22 30 12 16 1015.5 1015.5 0.2
21/08:30am 23.9 24.3 20.6 82 2.2 N 19 24 10 13 1015.7 1015.7 0.2
21/08:00am 24.1 23.6 21.4 85 1.8 N 26 30 14 16 1015.7 1015.7 0.2
21/07:30am 23.5 25.8 22.8 96 0.5 N 15 19 8 10 1015.9 1015.9 0.2
21/07:00am 23.2 26.0 23.0 99 0.1 N 13 19 7 10 1015.9 1015.9 0.2
21/06:30am 22.8 25.5 22.8 100 0.0 N 13 17 7 9 1015.7 1015.7 0.2
21/06:00am 22.7 25.3 22.7 100 0.0 N 13 17 7 9 1015.4 1015.4 0.2
21/05:30am 22.6 25.2 22.6 100 0.0 N 13 15 7 8 1015.0 1015.0 0.2
21/05:00am 22.2 24.5 22.0 99 0.1 N 13 19 7 10 1014.9 1014.9 0.0
21/04:30am 22.4 24.8 22.2 99 0.1 N 13 22 7 12 1014.8 1014.8 0.0
21/04:00am 22.1 23.9 21.9 99 0.1 N 15 20 8 11 1014.5 1014.5 0.0
21/03:30am 22.3 23.5 22.1 99 0.1 N 19 24 10 13 1014.5 1014.5 0.0
21/03:00am 22.5 23.5 22.2 98 0.2 N 20 28 11 15 1014.5 1014.5 0.0
21/02:30am 22.6 24.3 22.4 99 0.1 N 17 20 9 11 1014.6 1014.6 0.0
21/02:00am 22.5 23.6 22.3 99 0.1 N 20 26 11 14 1014.7 1014.7 0.0
21/01:30am 22.7 24.8 22.5 99 0.1 N 15 19 8 10 1014.9 1014.9 0.0
21/01:00am 22.2 23.7 22.0 99 0.1 N 17 22 9 12 1015.0 1015.0 0.0
21/12:30am 22.2 24.1 22.0 99 0.1 N 15 19 8 10 1015.2 1015.2 0.0
21/12:00am 22.4 24.4 22.2 99 0.1 N 15 17 8 9 1015.8 1015.8 0.0
 
Date/Time
EST
Temp
°C
App
Temp
°C
Dew
Point
Rel
Hum
%
Delta-T
°C
Wind Press
QNH
hPa
Press
MSL
hPa
Rain
since 9 am
mm
Dir
 
Spd
km/h
Gust
km/h
Spd
kts
Gust
kts
20/11:30pm 22.6 24.3 22.4 99 0.1 N 17 19 9 10 1016.1 1016.1 0.0
20/11:00pm 22.5 24.2 22.3 99 0.1 N 17 19 9 10 1016.6 1016.6 0.0
20/10:30pm 22.5 24.5 22.3 99 0.1 N 15 22 8 12 1016.8 1016.8 0.0
20/10:00pm 22.5 25.3 22.3 99 0.1 N 11 19 6 10 1017.0 1017.0 0.0
20/09:30pm 22.4 24.0 22.2 99 0.1 N 17 22 9 12 1016.9 1016.9 0.0
20/09:00pm 22.6 25.8 22.3 98 0.2 N 9 11 5 6 1016.7 1016.7 0.0
20/08:30pm 22.5 24.9 22.3 99 0.1 N 13 15 7 8 1016.4 1016.4 0.0
20/08:00pm 22.7 24.4 22.4 98 0.2 N 17 20 9 11 1016.2 1016.2 0.0
20/07:30pm 23.0 24.9 22.7 98 0.2 N 17 22 9 12 1016.1 1016.1 0.0
20/07:00pm 22.9 24.2 22.7 99 0.1 N 20 26 11 14 1015.6 1015.6 0.0
20/06:30pm 23.1 22.5 21.9 93 0.8 N 28 32 15 17 1015.3 1015.3 0.0
20/06:00pm 23.4 22.4 21.3 88 1.4 NNE 28 33 15 18 1014.9 1014.9 0.0
20/05:30pm 24.0 22.2 21.1 84 1.9 N 32 37 17 20 1014.5 1014.5 0.0
20/05:00pm 24.6 23.4 20.9 80 2.4 NNE 28 33 15 18 1014.3 1014.3 0.0
20/04:30pm 25.4 24.3 21.1 77 2.8 NNE 28 32 15 17 1014.4 1014.4 0.0
20/04:00pm 25.5 23.8 20.5 74 3.3 NNE 30 33 16 18 1014.5 1014.5 0.0
20/03:30pm 26.0 24.7 20.6 72 3.5 NNE 28 32 15 17 1014.7 1014.7 0.0
20/03:00pm 26.3 24.5 20.4 70 3.9 NNE 30 32 16 17 1014.6 1014.6 0.0
20/02:30pm 27.1 25.6 20.9 69 4.1 NNE 30 33 16 18 1014.8 1014.8 0.0
20/02:00pm 27.4 26.8 21.2 69 4.1 NNE 26 28 14 15 1015.4 1015.4 0.0
20/01:30pm 27.1 26.9 21.2 70 3.9 NNE 24 28 13 15 1015.8 1015.8 0.0
20/01:00pm 27.0 27.5 21.1 70 3.9 N 20 26 11 14 1015.9 1015.9 0.0
20/12:30pm 26.9 27.2 20.7 69 4.1 N 20 24 11 13 1016.4 1016.4 0.0
20/12:00pm 27.1 27.5 20.7 68 4.2 N 19 20 10 11 1016.8 1016.8 0.0
20/11:30am 27.1 27.8 21.2 70 3.9 N 19 20 10 11 1017.2 1017.2 0.0
20/11:00am 26.3 26.6 20.4 70 3.9 N 19 20 10 11 1017.9 1017.9 0.0
20/10:30am 25.8 26.1 20.4 72 3.5 N 19 20 10 11 1018.2 1018.2 0.0
20/10:00am 25.6 25.7 19.9 70 3.7 N 19 20 10 11 1018.5 1018.5 0.0
20/09:30am 25.4 27.5 20.2 73 3.4 N 9 17 5 9 1018.6 1018.6 0.0
20/09:00am 25.5 27.4 20.5 74 3.3 N 11 15 6 8 1018.4 1018.4 2.4
20/08:30am 25.2 27.6 20.9 77 2.8 N 9 13 5 7 1018.5 1018.5 2.4
20/08:00am 24.4 26.2 20.3 78 2.7 N 11 13 6 7 1018.4 1018.4 2.2
20/07:30am 24.0 25.7 20.1 79 2.5 N 11 13 6 7 1018.3 1018.3 2.2
20/07:00am 23.0 24.9 19.0 78 2.5 N 7 9 4 5 1018.4 1018.4 2.2
20/06:30am 22.3 24.2 19.7 85 1.7 N 9 9 5 5 1017.7 1017.7 2.2
20/06:00am 21.4 23.3 19.7 90 1.1 N 9 11 5 6 1017.7 1017.7 2.2
20/05:30am 21.1 23.9 20.8 98 0.2 N 7 9 4 5 1017.4 1017.4 2.2
20/05:00am 20.5 22.7 20.3 99 0.1 N 9 11 5 6 1017.1 1017.1 2.2
20/04:30am 20.1 22.1 19.9 99 0.1 N 9 11 5 6 1016.6 1016.6 2.2
20/04:00am 20.3 22.1 19.5 95 0.5 N 9 13 5 7 1016.5 1016.5 2.2
20/03:30am 20.7 22.8 20.2 97 0.3 N 9 11 5 6 1016.3 1016.3 2.2
20/03:00am 20.7 21.9 19.9 95 0.5 N 13 15 7 8 1016.2 1016.2 2.2
20/02:30am 20.8 21.6 19.1 90 1.1 N 13 15 7 8 1016.1 1016.1 2.2
20/02:00am 21.0 21.7 18.8 87 1.4 N 13 15 7 8 1016.0 1016.0 2.2
20/01:30am 21.7 22.2 19.3 86 1.5 NNW 15 20 8 11 1016.0 1016.0 2.2
20/01:00am 21.8 23.6 20.4 92 0.9 NNW 11 15 6 8 1016.1 1016.1 2.2
20/12:30am 22.0 23.1 20.5 91 1.0 NNW 15 19 8 10 1016.6 1016.6 2.2
20/12:00am 22.1 23.8 20.9 93 0.8 NNW 13 17 7 9 1016.9 1016.9 2.2
 
Date/Time
EST
Temp
°C
App
Temp
°C
Dew
Point
Rel
Hum
%
Delta-T
°C
Wind Press
QNH
hPa
Press
MSL
hPa
Rain
since 9 am
mm
Dir
 
Spd
km/h
Gust
km/h
Spd
kts
Gust
kts
19/11:30pm 22.1 23.9 21.1 94 0.7 N 13 17 7 9 1017.3 1017.3 2.2
19/11:00pm 22.2 23.8 21.4 95 0.5 NNW 15 20 8 11 1017.1 1017.1 2.2
19/10:30pm 22.4 24.3 22.1 98 0.2 NNW 15 24 8 13 1017.4 1017.4 2.2
19/10:00pm 22.2 22.7 22.0 99 0.1 NNW 22 33 12 18 1017.0 1017.0 2.2
19/09:30pm 22.4 22.4 22.4 100 0.0 N 26 30 14 16 1017.1 1017.1 2.2
19/09:00pm 22.7 23.2 22.7 100 0.0 NE 24 30 13 16 1017.7 1017.7 2.0
19/08:30pm 23.0 25.8 23.0 100 0.0 SE 13 17 7 9 1017.4 1017.4 2.0
19/08:00pm 22.9 25.6 22.9 100 0.0 SE 13 15 7 8 1017.0 1017.0 2.0
19/07:30pm 22.9 25.3 22.9 100 0.0 SE 15 17 8 9 1016.9 1016.9 2.0
19/07:00pm 22.9 24.5 22.9 100 0.0 SE 19 24 10 13 1016.6 1016.6 2.0
19/06:30pm 22.9 24.9 22.9 100 0.0 ESE 17 24 9 13 1016.3 1016.3 1.8
19/06:00pm 22.9 25.6 22.9 100 0.0 E 13 15 7 8 1016.1 1016.1 1.8
19/05:30pm 23.0 25.4 23.0 100 0.0 E 15 17 8 9 1015.5 1015.5 1.8
19/05:00pm 23.3 25.9 23.3 100 0.0 ESE 15 19 8 10 1015.6 1015.6 0.8
19/04:30pm 23.4 26.4 23.4 100 0.0 SE 13 17 7 9 1015.5 1015.5 0.2
19/04:00pm 23.6 25.9 23.4 99 0.1 SE 17 19 9 10 1015.6 1015.6 0.2
19/03:30pm 23.7 26.8 23.5 99 0.1 E 13 15 7 8 1015.3 1015.3 0.2
19/03:00pm 24.0 25.7 22.4 91 1.1 ESE 17 19 9 10 1015.4 1015.4 0.2
19/02:30pm 24.7 26.7 22.2 86 1.7 E 15 17 8 9 1015.2 1015.2 0.2
19/02:00pm 25.8 28.2 22.3 81 2.3 E 13 15 7 8 1015.7 1015.7 0.2
19/01:30pm 27.2 29.1 22.8 77 3.0 E 17 19 9 10 1016.0 1016.0 0.2
19/01:00pm 27.7 29.9 22.6 74 3.5 E 15 17 8 9 1016.4 1016.4 0.2
19/12:30pm 26.6 28.6 22.2 77 3.0 E 15 17 8 9 1016.4 1016.4 0.2
19/12:00pm 25.5 27.5 22.2 82 2.2 E 15 17 8 9 1016.9 1016.9 0.2
19/11:30am 24.9 26.8 22.0 84 1.9 ESE 15 19 8 10 1017.4 1017.4 0.2
19/11:00am 25.3 26.9 22.2 83 2.1 SE 17 20 9 11 1017.8 1017.8 0.2
19/10:30am 25.6 27.3 22.3 82 2.2 SE 17 22 9 12 1017.9 1017.9 0.2
19/10:00am 25.1 26.9 22.6 86 1.7 SE 17 17 9 9 1018.1 1018.1 0.0

Other Formats:

Comma delimited format used in spreadsheet applications
http://www.bom.gov.au/fwo/IDQ60801/IDQ60801.94580.axf

JavaScript Object Notation format (JSON) in row-major order
http://www.bom.gov.au/fwo/IDQ60801/IDQ60801.94580.json